Terminal Aerodrome Forecast
Issued by NWS Portland, ME

Home | Current Version | Previous Version | Text Only | Print | Product List | Glossary On
Versions: 1 2 3 4 5 6 7 8 9 10 11 12 13 14 15 16 17 18 19 20 21
883
FTUS41 KGYX 281720
TAFPWM
TAF
KPWM 281720Z 2818/2918 17007KT P6SM SCT050 SCT150
     FM282300 16004KT P6SM BKN050 BKN250
      TEMPO 2823/2903 3SM -TSRA BKN020CB
     FM290300 VRB03KT 4SM -SHRA BR OVC045=

USA.gov is the U.S. government's official web portal to all federal, state and local government web resources and services.